Terminal Aerodrome Forecast
Issued by NWS Paducah, KY

Home | Current Version | Previous Version | Text Only | Print | Product List | Glossary Off
Versions: 1 2 3 4 5 6 7 8 9 10 11 12 13 14 15 16 17 18

000
FTUS43 KPAH 250911 AAB
TAFPAH
TAF AMD
KPAH 250911Z 2509/2606 30011KT P6SM BKN035
      TEMPO 2509/2513 30013G23KT
     FM251500 31012G20KT P6SM SCT040
     FM252300 30004KT P6SM SKC=

USA.gov is the U.S. government's official web portal to all federal, state and local government web resources and services.